Boldon, United Kingdom
Current Conditions -  °F | °C
As of 3:20 PM on Sunday 23 Nov 2014 (Local Time) from EGNT Reporting Station
Clear Clear  
Wind Chill:   Ceiling: Unl
Heat Index:   Visibility: 6mi
Dew Point:   Wind: 9mph
Humidity: 87%   Direction: 270°W
Pressure: 30"   Gusts: NA
Location:  54.94°N, 1.45°W
Report Text: EGNT 231520Z 27008KT CAVOK 06/04 Q1016
Loading
Personal Weather Stations






























Interactive Weather Map New forecast layout! Learn more

10-Day Weather Forecast

Advertisements
Track Severe Weather on mobile